메인 페이지
METAR-TAF:

METAR-TAF

공항 :

Kullu / Manali, 인도

위도: 31-52-36N, 경도: 77-09-16E, 고도: 1089m

현재 날씨관측

예보는 2 시간 7분 전, 06:00시(UTC)에 발표되었습니다.
무풍
온도 11°C
습도 43%
기압 1024 hPa
시정: 5000m
연무

METAR: VIBR 150600Z 00000KT 5000 HZ NSC 11/M01 Q1024

시각: 13:37 (08:07 UTC)


TAF: 누락

4,000개 이상의 공항 관측 자료 및 예보 (METAR 및 TAF 보고).

지도상에서 검색 가능한 기상관측소가 노란 점과 빨간 점으로 표시되어 있습니다.

기상관측소 명을 보려면 표시 위로 마우스를 이동하세요.

날씨 관측과 예보를 보려면 클릭하세요.

지도 변경 : 확대하려면 엑스 표시가 있는 녹색 버튼, 축소하려면 빼기 표시가 있는 녹색 버튼, 다음 페이지의 지도를 보려면 녹색 화살표를 클릭하세요.


METAR-TAF: